createdAt,value
2022-12-17T00:00:10.034Z,3.47
2022-12-17T00:03:00.185Z,3.44
2022-12-17T00:05:50.655Z,3.45
2022-12-17T00:08:41.086Z,3.45
2022-12-17T00:11:30.849Z,3.42
2022-12-17T00:14:21.307Z,3.44
2022-12-17T00:17:13.248Z,3.45
2022-12-17T00:20:05.910Z,3.42
2022-12-17T00:23:04.827Z,3.44
2022-12-17T00:25:55.610Z,3.42
2022-12-17T00:28:46.403Z,3.39
2022-12-17T00:31:36.527Z,3.39
2022-12-17T00:34:28.426Z,3.38
2022-12-17T00:37:15.625Z,3.34
2022-12-17T00:40:06.074Z,3.33
2022-12-17T00:42:56.474Z,3.31
2022-12-17T00:45:46.515Z,3.29
2022-12-17T00:48:37.042Z,3.26
2022-12-17T00:51:29.110Z,3.25
2022-12-17T00:54:19.257Z,3.22
2022-12-17T00:57:09.331Z,3.18
2022-12-17T01:00:00.662Z,3.19
2022-12-17T01:02:50.969Z,3.16
2022-12-17T01:05:42.596Z,3.14
2022-12-17T01:08:34.506Z,3.13
2022-12-17T01:11:28.882Z,3.12
2022-12-17T01:14:19.335Z,3.12
2022-12-17T01:17:09.710Z,3.13
2022-12-17T01:20:00.145Z,3.14
2022-12-17T01:22:50.594Z,3.15
2022-12-17T01:25:42.582Z,3.13
2022-12-17T01:28:32.809Z,3.13
2022-12-17T01:31:22.154Z,3.12
2022-12-17T01:34:12.487Z,3.12
2022-12-17T01:37:02.733Z,3.10
2022-12-17T01:39:53.392Z,3.09
2022-12-17T01:42:44.993Z,3.04
2022-12-17T01:45:34.550Z,3.01
2022-12-17T01:48:35.834Z,3.00
2022-12-17T01:51:28.356Z,2.96
2022-12-17T01:54:20.102Z,2.94
2022-12-17T01:57:11.186Z,2.92
2022-12-17T02:00:09.206Z,2.90
2022-12-17T02:02:59.938Z,2.88
2022-12-17T02:05:57.553Z,2.86
2022-12-17T02:08:56.253Z,2.88
2022-12-17T02:11:57.383Z,2.87
2022-12-17T02:14:52.647Z,2.87
2022-12-17T02:17:50.748Z,2.87
2022-12-17T02:20:48.615Z,2.87
2022-12-17T02:23:54.334Z,2.88
2022-12-17T02:26:55.005Z,2.86
2022-12-17T02:29:48.354Z,2.85
2022-12-17T02:32:39.361Z,2.83
2022-12-17T02:35:33.939Z,2.85
2022-12-17T02:38:36.676Z,2.83
2022-12-17T02:41:32.115Z,2.80
2022-12-17T02:44:25.931Z,2.78
2022-12-17T02:47:18.089Z,2.76
2022-12-17T02:50:08.824Z,2.73
2022-12-17T02:53:03.931Z,2.70
2022-12-17T02:55:55.031Z,2.63
2022-12-17T02:58:47.060Z,2.57
2022-12-17T03:01:38.576Z,2.51
2022-12-17T03:04:28.689Z,2.43
2022-12-17T03:07:18.964Z,2.33
2022-12-17T03:10:09.455Z,2.25
2022-12-17T03:13:00.051Z,2.15
2022-12-17T03:15:50.263Z,2.07
2022-12-17T03:18:41.761Z,2.00
2022-12-17T03:21:32.245Z,1.92
2022-12-17T03:24:23.185Z,1.87
2022-12-17T03:27:15.728Z,1.81
2022-12-17T03:30:11.557Z,1.77
2022-12-17T03:33:02.103Z,1.77
2022-12-17T03:35:53.968Z,1.77
2022-12-17T03:38:44.281Z,1.76
2022-12-17T03:41:34.523Z,1.76
2022-12-17T03:44:24.779Z,1.74
2022-12-17T03:47:14.808Z,1.76
2022-12-17T03:50:05.109Z,1.78
2022-12-17T03:52:57.148Z,1.80
2022-12-17T03:55:47.430Z,1.83
2022-12-17T03:58:37.600Z,1.84
2022-12-17T04:01:28.411Z,1.86
2022-12-17T04:04:19.858Z,1.88
2022-12-17T04:07:10.818Z,1.86
2022-12-17T04:10:02.310Z,1.87
2022-12-17T04:12:52.644Z,1.85
2022-12-17T04:15:42.887Z,1.81
2022-12-17T04:18:33.612Z,1.78
2022-12-17T04:21:24.201Z,1.74
2022-12-17T04:24:14.872Z,1.69
2022-12-17T04:27:06.830Z,1.65
2022-12-17T04:29:57.131Z,1.63
2022-12-17T04:32:47.437Z,1.61
2022-12-17T04:35:39.112Z,1.60
2022-12-17T04:38:29.784Z,1.57
2022-12-17T04:41:19.852Z,1.57
2022-12-17T04:44:11.911Z,1.58
2022-12-17T04:47:02.833Z,1.58
2022-12-17T04:49:53.258Z,1.58
2022-12-17T04:52:43.510Z,1.58
2022-12-17T04:55:34.319Z,1.58
2022-12-17T04:58:25.766Z,1.56
2022-12-17T05:01:18.511Z,1.54
2022-12-17T05:04:09.874Z,1.50
2022-12-17T05:07:02.463Z,1.47
2022-12-17T05:09:53.039Z,1.41
2022-12-17T05:12:54.606Z,1.35
2022-12-17T05:15:52.779Z,1.30
2022-12-17T05:18:50.526Z,1.27
2022-12-17T05:21:41.016Z,1.18
2022-12-17T05:24:31.460Z,1.16
2022-12-17T05:27:37.036Z,1.11
2022-12-17T05:30:30.414Z,1.08
2022-12-17T05:33:22.261Z,1.03
2022-12-17T05:36:18.351Z,1.01
2022-12-17T05:39:08.950Z,0.97
2022-12-17T05:41:59.296Z,0.96
2022-12-17T05:44:49.584Z,0.95
2022-12-17T05:47:39.884Z,0.92
2022-12-17T05:50:30.595Z,0.91
2022-12-17T05:53:23.125Z,0.91
2022-12-17T05:56:14.246Z,0.89
2022-12-17T05:59:04.674Z,0.91
2022-12-17T06:01:55.442Z,0.93
2022-12-17T06:04:47.844Z,0.96
2022-12-17T06:07:38.220Z,1.01
2022-12-17T06:10:29.933Z,1.05
2022-12-17T06:13:20.145Z,1.11
2022-12-17T06:16:11.257Z,1.14
2022-12-17T06:19:01.568Z,1.22
2022-12-17T06:21:52.147Z,1.27
2022-12-17T06:24:45.886Z,1.30
2022-12-17T06:27:37.996Z,1.32
2022-12-17T06:30:43.674Z,1.33
2022-12-17T06:33:34.951Z,1.33
2022-12-17T06:36:25.699Z,1.29
2022-12-17T06:39:16.234Z,1.25
2022-12-17T06:42:06.327Z,1.18
2022-12-17T06:44:58.441Z,1.07
2022-12-17T06:47:48.740Z,0.97
2022-12-17T06:50:39.218Z,0.88
2022-12-17T06:53:32.289Z,0.80
2022-12-17T06:56:22.924Z,0.68
2022-12-17T06:59:13.124Z,0.61
2022-12-17T07:02:05.203Z,0.54
2022-12-17T07:04:55.363Z,0.44
2022-12-17T07:07:45.916Z,0.40
2022-12-17T07:10:36.323Z,0.33
2022-12-17T07:13:28.072Z,0.28
2022-12-17T07:16:18.433Z,0.25
2022-12-17T07:19:10.055Z,0.23
2022-12-17T07:22:00.333Z,0.21
2022-12-17T07:24:50.741Z,0.17
2022-12-17T07:27:41.173Z,0.18
2022-12-17T07:30:31.857Z,0.19
2022-12-17T07:33:24.964Z,0.17
2022-12-17T07:36:16.746Z,0.17
2022-12-17T07:39:07.228Z,0.15
2022-12-17T07:41:57.565Z,0.15
2022-12-17T07:44:47.681Z,0.12
2022-12-17T07:47:37.959Z,0.09
2022-12-17T07:50:28.120Z,0.10
2022-12-17T07:53:21.073Z,0.10
2022-12-17T07:56:11.026Z,0.08
2022-12-17T07:59:01.513Z,0.08
2022-12-17T08:01:51.999Z,0.07
2022-12-17T08:04:42.653Z,0.08
2022-12-17T08:07:32.784Z,0.09
2022-12-17T08:10:26.032Z,0.11
2022-12-17T08:13:18.616Z,0.11
2022-12-17T08:16:12.122Z,0.16
2022-12-17T08:19:02.482Z,0.17
2022-12-17T08:21:52.908Z,0.20
2022-12-17T08:24:43.182Z,0.23
2022-12-17T08:27:34.859Z,0.27
2022-12-17T08:30:28.440Z,0.30
2022-12-17T08:33:21.733Z,0.38
2022-12-17T08:36:12.970Z,0.45
2022-12-17T08:39:04.422Z,0.53
2022-12-17T08:41:57.456Z,0.64
2022-12-17T08:44:52.139Z,0.77
2022-12-17T08:47:42.275Z,0.86
2022-12-17T08:50:32.534Z,0.95
2022-12-17T08:53:24.086Z,1.06
2022-12-17T08:56:14.489Z,1.12
2022-12-17T08:59:04.823Z,1.23
2022-12-17T09:01:56.801Z,1.27
2022-12-17T09:04:47.103Z,1.31
2022-12-17T09:07:37.951Z,1.34
2022-12-17T09:10:28.228Z,1.35
2022-12-17T09:13:20.595Z,1.38
2022-12-17T09:16:12.400Z,1.38
2022-12-17T09:19:04.639Z,1.36
2022-12-17T09:21:55.050Z,1.34
2022-12-17T09:24:45.267Z,1.35
2022-12-17T09:27:38.459Z,1.32
2022-12-17T09:30:29.950Z,1.28
2022-12-17T09:33:20.292Z,1.23
2022-12-17T09:36:12.131Z,1.20
2022-12-17T09:39:05.057Z,1.13
2022-12-17T09:42:13.996Z,1.07
2022-12-17T09:45:09.540Z,1.03
2022-12-17T09:48:07.771Z,0.96
2022-12-17T09:50:58.623Z,0.92
2022-12-17T09:53:55.748Z,0.88
2022-12-17T09:56:49.045Z,0.85
2022-12-17T09:59:40.941Z,0.81
2022-12-17T10:02:32.522Z,0.81
2022-12-17T10:05:26.989Z,0.83
2022-12-17T10:08:18.340Z,0.88
2022-12-17T10:11:11.439Z,0.94
2022-12-17T10:14:01.990Z,1.02
2022-12-17T10:17:07.063Z,1.16
2022-12-17T10:20:01.552Z,1.30
2022-12-17T10:23:01.454Z,1.48
2022-12-17T10:25:52.996Z,1.65
2022-12-17T10:28:44.516Z,1.86
2022-12-17T10:31:37.755Z,2.04
2022-12-17T10:34:35.007Z,2.24
2022-12-17T10:37:37.305Z,2.40
2022-12-17T10:40:38.943Z,2.55
2022-12-17T10:43:48.365Z,2.69
2022-12-17T10:46:43.277Z,2.84
2022-12-17T10:49:36.017Z,2.93
2022-12-17T10:52:40.813Z,3.05
2022-12-17T10:55:40.509Z,3.13
2022-12-17T10:58:33.816Z,3.21
2022-12-17T11:01:29.269Z,3.32
2022-12-17T11:04:19.854Z,3.39
2022-12-17T11:07:14.133Z,3.50
2022-12-17T11:10:09.516Z,3.59
2022-12-17T11:13:04.254Z,3.66
2022-12-17T11:15:58.348Z,3.77
2022-12-17T11:19:00.715Z,3.87
2022-12-17T11:21:54.773Z,3.93
2022-12-17T11:24:51.169Z,4.01
2022-12-17T11:27:47.328Z,4.07
2022-12-17T11:30:46.302Z,4.07
2022-12-17T11:33:43.210Z,4.10
2022-12-17T11:36:43.263Z,4.13
2022-12-17T11:39:46.141Z,4.09
2022-12-17T11:42:43.983Z,4.03
2022-12-17T11:45:44.306Z,3.95
2022-12-17T11:48:46.050Z,3.87
2022-12-17T11:51:46.594Z,3.76
2022-12-17T11:54:43.774Z,3.66
2022-12-17T11:57:41.112Z,3.55
2022-12-17T12:00:35.878Z,3.46
2022-12-17T12:03:43.374Z,3.40
2022-12-17T12:06:46.428Z,3.35
2022-12-17T12:09:43.374Z,3.30
2022-12-17T12:12:45.186Z,3.27
2022-12-17T12:15:43.936Z,3.22
2022-12-17T12:18:43.153Z,3.17
2022-12-17T12:21:50.673Z,3.12
2022-12-17T12:24:57.170Z,3.08
2022-12-17T12:27:53.590Z,3.03
2022-12-17T12:30:52.453Z,3.00
2022-12-17T12:33:52.238Z,2.95
2022-12-17T12:36:45.840Z,2.94
2022-12-17T12:39:43.194Z,2.93
2022-12-17T12:42:39.056Z,2.90
2022-12-17T12:45:49.255Z,2.89
2022-12-17T12:48:52.559Z,2.87
2022-12-17T12:51:46.762Z,2.84
2022-12-17T12:54:46.281Z,2.85
2022-12-17T12:57:48.403Z,2.83
2022-12-17T13:00:43.026Z,2.79
2022-12-17T13:03:42.230Z,2.80
2022-12-17T13:06:36.305Z,2.77
2022-12-17T13:09:23.441Z,2.78
2022-12-17T13:12:09.829Z,2.76
2022-12-17T13:14:50.671Z,2.77
2022-12-17T13:17:30.457Z,2.74
2022-12-17T13:20:20.706Z,2.72
2022-12-17T13:25:42.171Z,2.69
2022-12-17T13:28:31.002Z,2.67
2022-12-17T13:31:06.140Z,2.63
2022-12-17T13:33:47.913Z,2.62
2022-12-17T13:36:25.317Z,2.58
2022-12-17T13:39:04.427Z,2.58
2022-12-17T13:41:39.365Z,2.56
2022-12-17T13:44:21.785Z,2.53
2022-12-17T13:46:55.546Z,2.49
2022-12-17T13:49:29.865Z,2.46
2022-12-17T13:52:11.172Z,2.41
2022-12-17T13:54:44.329Z,2.37
2022-12-17T13:57:20.249Z,2.38
2022-12-17T13:59:53.957Z,2.34
2022-12-17T14:02:29.220Z,2.31
2022-12-17T14:05:07.758Z,2.27
2022-12-17T14:07:41.884Z,2.23
2022-12-17T14:10:17.831Z,2.21
2022-12-17T14:12:51.393Z,2.16
2022-12-17T14:15:26.781Z,2.16
2022-12-17T14:18:00.338Z,2.10
2022-12-17T14:20:36.652Z,2.10
2022-12-17T14:23:15.356Z,2.05
2022-12-17T14:25:49.233Z,2.01
2022-12-17T14:28:26.824Z,2.01
2022-12-17T14:34:07.204Z,1.94
2022-12-17T14:36:42.120Z,1.92
2022-12-17T14:39:20.889Z,1.91
2022-12-17T14:42:14.585Z,1.87
2022-12-17T14:44:54.159Z,1.85
2022-12-17T14:47:29.518Z,1.80
2022-12-17T14:50:07.194Z,1.77
2022-12-17T14:52:43.074Z,1.74
2022-12-17T14:55:41.262Z,1.71
2022-12-17T14:58:20.118Z,1.69
2022-12-17T15:01:00.593Z,1.65
2022-12-17T15:03:36.222Z,1.59
2022-12-17T15:06:11.696Z,1.56
2022-12-17T15:08:47.344Z,1.51
2022-12-17T15:11:22.380Z,1.45
2022-12-17T15:13:56.847Z,1.41
2022-12-17T15:16:32.193Z,1.38
2022-12-17T15:19:05.010Z,1.34
2022-12-17T15:21:38.304Z,1.31
2022-12-17T15:24:13.309Z,1.30
2022-12-17T15:26:46.220Z,1.31
2022-12-17T15:29:19.031Z,1.33
2022-12-17T15:31:53.194Z,1.36
2022-12-17T15:34:26.015Z,1.42
2022-12-17T15:36:58.994Z,1.48
2022-12-17T15:39:31.874Z,1.55
2022-12-17T15:42:22.472Z,1.62
2022-12-17T15:44:55.300Z,1.71
2022-12-17T15:47:29.492Z,1.80
2022-12-17T15:50:02.475Z,1.86
2022-12-17T15:52:35.529Z,1.92
2022-12-17T15:55:09.300Z,1.98
2022-12-17T15:57:42.360Z,2.05
2022-12-17T16:00:16.011Z,2.13
2022-12-17T16:02:50.555Z,2.17
2022-12-17T16:05:23.811Z,2.23
2022-12-17T16:07:59.560Z,2.29
2022-12-17T16:10:34.128Z,2.35
2022-12-17T16:13:07.069Z,2.41
2022-12-17T16:15:39.995Z,2.44
2022-12-17T16:18:18.335Z,2.49
2022-12-17T16:20:51.405Z,2.52
2022-12-17T16:23:24.203Z,2.56
2022-12-17T16:25:58.898Z,2.57
2022-12-17T16:28:31.877Z,2.60
2022-12-17T16:31:07.138Z,2.63
2022-12-17T16:33:43.340Z,2.65
2022-12-17T16:36:18.350Z,2.69
2022-12-17T16:38:52.935Z,2.72
2022-12-17T16:41:25.919Z,2.73
2022-12-17T16:43:58.907Z,2.76
2022-12-17T16:46:34.018Z,2.79
2022-12-17T16:49:09.892Z,2.78
2022-12-17T16:51:42.979Z,2.77
2022-12-17T16:54:18.523Z,2.77
2022-12-17T16:56:53.114Z,2.77
2022-12-17T16:59:26.015Z,2.76
2022-12-17T17:02:00.283Z,2.76
2022-12-17T17:04:35.585Z,2.76
2022-12-17T17:07:08.490Z,2.77
2022-12-17T17:09:41.369Z,2.77
2022-12-17T17:12:14.187Z,2.78
2022-12-17T17:14:47.098Z,2.82
2022-12-17T17:17:19.958Z,2.82
2022-12-17T17:20:14.432Z,2.88
2022-12-17T17:22:47.566Z,2.89
2022-12-17T17:25:20.457Z,2.89
2022-12-17T17:27:53.488Z,2.90
2022-12-17T17:30:27.372Z,2.92
2022-12-17T17:33:00.239Z,2.94
2022-12-17T17:35:34.426Z,2.96
2022-12-17T17:38:07.230Z,2.93
2022-12-17T17:40:40.017Z,2.94
2022-12-17T17:43:13.028Z,2.95
2022-12-17T17:45:45.861Z,2.94
2022-12-17T17:48:18.662Z,2.94
2022-12-17T17:51:00.551Z,2.94
2022-12-17T17:53:33.273Z,2.92
2022-12-17T17:56:08.228Z,2.95
2022-12-17T17:58:41.091Z,2.90
2022-12-17T18:01:16.977Z,2.89
2022-12-17T18:03:49.903Z,2.88
2022-12-17T18:06:24.538Z,2.85
2022-12-17T18:08:58.541Z,2.84
2022-12-17T18:11:33.259Z,2.83
2022-12-17T18:14:06.707Z,2.83
2022-12-17T18:16:42.308Z,2.85
2022-12-17T18:19:17.348Z,2.83
2022-12-17T18:21:51.622Z,2.83
2022-12-17T18:24:24.801Z,2.82
2022-12-17T18:26:57.962Z,2.83
2022-12-17T18:29:32.322Z,2.84
2022-12-17T18:32:05.578Z,2.81
2022-12-17T18:34:38.517Z,2.82
2022-12-17T18:37:12.980Z,2.81
2022-12-17T18:39:45.837Z,2.82
2022-12-17T18:42:36.015Z,2.81
2022-12-17T18:45:09.578Z,2.81
2022-12-17T18:47:44.667Z,2.82
2022-12-17T18:50:17.736Z,2.83
2022-12-17T18:52:52.062Z,2.83
2022-12-17T18:55:24.891Z,2.82
2022-12-17T18:57:57.745Z,2.84
2022-12-17T19:00:32.179Z,2.86
2022-12-17T19:03:05.947Z,2.88
2022-12-17T19:05:45.193Z,2.90
2022-12-17T19:08:23.299Z,2.93
2022-12-17T19:10:56.267Z,2.94
2022-12-17T19:13:31.207Z,2.98
2022-12-17T19:16:09.450Z,3.00
2022-12-17T19:18:43.557Z,3.00
2022-12-17T19:21:16.456Z,3.01
2022-12-17T19:23:51.889Z,3.03
2022-12-17T19:26:25.659Z,3.07
2022-12-17T19:29:00.596Z,3.11
2022-12-17T19:31:34.046Z,3.13
2022-12-17T19:34:10.459Z,3.15
2022-12-17T19:36:45.766Z,3.20
2022-12-17T19:39:21.141Z,3.20
2022-12-17T19:41:53.982Z,3.24
2022-12-17T19:44:27.295Z,3.23
2022-12-17T19:47:00.124Z,3.27
2022-12-17T19:49:35.166Z,3.31
2022-12-17T19:52:08.052Z,3.32
2022-12-17T19:54:42.830Z,3.36
2022-12-17T19:57:15.790Z,3.36
2022-12-17T19:59:49.016Z,3.39
2022-12-17T20:02:22.011Z,3.40
2022-12-17T20:04:55.354Z,3.41
2022-12-17T20:07:28.442Z,3.42
2022-12-17T20:10:02.853Z,3.46
2022-12-17T20:12:35.802Z,3.47
2022-12-17T20:15:09.288Z,3.49
2022-12-17T20:17:43.756Z,3.52
2022-12-17T20:20:16.808Z,3.53
2022-12-17T20:22:49.560Z,3.54
2022-12-17T20:25:23.846Z,3.56
2022-12-17T20:27:56.892Z,3.54
2022-12-17T20:30:29.793Z,3.52
2022-12-17T20:33:02.657Z,3.52
2022-12-17T20:35:40.072Z,3.53
2022-12-17T20:38:12.913Z,3.54
2022-12-17T20:40:47.206Z,3.52
2022-12-17T20:43:20.091Z,3.53
2022-12-17T20:45:55.388Z,3.53
2022-12-17T20:48:28.526Z,3.53
2022-12-17T20:51:06.358Z,3.51
2022-12-17T20:53:40.007Z,3.49
2022-12-17T20:56:16.513Z,3.48
2022-12-17T20:58:53.868Z,3.47
2022-12-17T21:01:28.673Z,3.44
2022-12-17T21:04:02.646Z,3.43
2022-12-17T21:06:40.135Z,3.40
2022-12-17T21:09:13.618Z,3.36
2022-12-17T21:11:48.235Z,3.34
2022-12-17T21:14:21.071Z,3.33
2022-12-17T21:16:53.943Z,3.31
2022-12-17T21:19:28.527Z,3.30
2022-12-17T21:22:01.686Z,3.29
2022-12-17T21:24:34.794Z,3.28
2022-12-17T21:27:14.508Z,3.29
2022-12-17T21:29:47.886Z,3.27
2022-12-17T21:32:21.668Z,3.28
2022-12-17T21:34:54.641Z,3.26
2022-12-17T21:37:28.126Z,3.23
2022-12-17T21:40:01.830Z,3.24
2022-12-17T21:42:53.885Z,3.24
2022-12-17T21:45:27.415Z,3.21
2022-12-17T21:48:01.184Z,3.21
2022-12-17T21:50:34.750Z,3.21
2022-12-17T21:53:07.684Z,3.21
2022-12-17T21:55:40.697Z,3.23
2022-12-17T21:58:16.164Z,3.23
2022-12-17T22:00:49.221Z,3.19
2022-12-17T22:03:22.092Z,3.17
2022-12-17T22:06:00.442Z,3.16
2022-12-17T22:08:35.840Z,3.11
2022-12-17T22:11:18.362Z,3.11
2022-12-17T22:14:07.304Z,3.09
2022-12-17T22:16:43.492Z,3.07
2022-12-17T22:19:19.094Z,3.02
2022-12-17T22:21:56.868Z,2.99
2022-12-17T22:24:35.901Z,2.99
2022-12-17T22:27:09.690Z,2.95
2022-12-17T22:30:01.840Z,2.93
2022-12-17T22:32:52.230Z,2.90
2022-12-17T22:36:20.648Z,2.91
2022-12-17T22:41:07.279Z,2.90
2022-12-17T22:44:30.261Z,2.88
2022-12-17T22:44:52.096Z,2.88
2022-12-17T22:47:19.130Z,2.90
2022-12-17T22:49:52.183Z,2.91
2022-12-17T22:52:25.934Z,2.91
2022-12-17T22:54:59.275Z,2.93
2022-12-17T22:57:36.024Z,2.94
2022-12-17T23:00:18.835Z,2.95
2022-12-17T23:02:55.134Z,2.97
2022-12-17T23:05:29.570Z,2.98
2022-12-17T23:08:02.602Z,2.96
2022-12-17T23:10:35.506Z,2.96
2022-12-17T23:13:08.423Z,2.96
2022-12-17T23:15:41.308Z,2.95
2022-12-17T23:18:15.636Z,2.94
2022-12-17T23:20:48.472Z,2.93
2022-12-17T23:23:22.798Z,2.91
2022-12-17T23:25:55.823Z,2.89
2022-12-17T23:28:28.603Z,2.91
2022-12-17T23:31:07.444Z,2.90
2022-12-17T23:33:43.155Z,2.88
2022-12-17T23:36:20.102Z,2.87
2022-12-17T23:38:54.288Z,2.86
2022-12-17T23:41:29.040Z,2.84
2022-12-17T23:44:02.254Z,2.83
2022-12-17T23:46:35.200Z,2.81
2022-12-17T23:49:09.976Z,2.81
2022-12-17T23:51:42.934Z,2.81
2022-12-17T23:54:15.761Z,2.79
2022-12-17T23:56:48.594Z,2.79
2022-12-17T23:59:21.603Z,2.76
